Time,TemperatureF,DewpointF,PressureIn,WindDirection,WindDirectionDegrees,WindSpeedMPH,WindSpeedGustMPH,Humidity,HourlyPrecipIn,Conditions,Clouds,dailyrainin,SolarRadiationWatts/m^2,SoftwareType,DateUTC
2013-05-03 00:00:00,34.0,33.0,-100.00,North,0,13.0,-999.0,94,-99.99,,,-99.99,0.000000,,2013-05-03 05:00:00,
2013-05-03 00:42:00,34.0,33.0,-100.00,North,0,13.0,-999.0,94,-99.99,,,-99.99,0.000000,,2013-05-03 05:42:00,
2013-05-03 00:52:00,34.0,33.0,-100.00,North,0,13.0,-999.0,94,-99.99,,,-99.99,0.000000,,2013-05-03 05:52:00,
2013-05-03 01:00:00,34.0,33.0,-100.00,North,0,12.0,-999.0,93,-99.99,,,-99.99,0.000000,,2013-05-03 06:00:00,
2013-05-03 01:42:00,34.0,33.0,-100.00,North,0,12.0,-999.0,93,-99.99,,,-99.99,0.000000,,2013-05-03 06:42:00,
2013-05-03 01:52:00,34.0,33.0,-100.00,North,0,12.0,-999.0,93,-99.99,,,-99.99,0.000000,,2013-05-03 06:52:00,
2013-05-03 02:00:00,34.0,33.0,-100.00,North,0,12.0,-999.0,94,-99.99,,,-99.99,0.000000,,2013-05-03 07:00:00,
2013-05-03 02:42:00,34.0,33.0,-100.00,North,0,12.0,-999.0,94,-99.99,,,-99.99,0.000000,,2013-05-03 07:42:00,
2013-05-03 02:52:00,34.0,33.0,-100.00,North,0,12.0,-999.0,94,-99.99,,,-99.99,0.000000,,2013-05-03 07:52:00,
2013-05-03 03:00:00,34.0,33.0,-100.00,North,0,12.0,-999.0,94,-99.99,,,-99.99,0.000000,,2013-05-03 08:00:00,
2013-05-03 03:42:00,34.0,33.0,-100.00,North,0,12.0,-999.0,94,-99.99,,,-99.99,0.000000,,2013-05-03 08:42:00,
2013-05-03 03:53:00,34.0,33.0,-100.00,North,0,12.0,-999.0,94,-99.99,,,-99.99,0.000000,,2013-05-03 08:53:00,
2013-05-03 04:00:00,34.0,33.0,-100.00,North,0,12.0,-999.0,96,0.06,,,-99.99,0.000000,,2013-05-03 09:00:00,
2013-05-03 04:42:00,34.0,33.0,-100.00,North,0,12.0,-999.0,96,0.06,,,-99.99,0.000000,,2013-05-03 09:42:00,
2013-05-03 04:53:00,34.0,33.0,-100.00,North,0,12.0,-999.0,96,0.06,,,-99.99,0.000000,,2013-05-03 09:53:00,
2013-05-03 05:00:00,34.0,33.0,-100.00,North,0,11.0,-999.0,97,-99.99,,,-99.99,0.000000,,2013-05-03 10:00:00,
2013-05-03 05:42:00,34.0,33.0,-100.00,North,0,11.0,-999.0,97,-99.99,,,-99.99,0.000000,,2013-05-03 10:42:00,
2013-05-03 05:52:00,34.0,33.0,-100.00,North,0,11.0,-999.0,97,-99.99,,,-99.99,0.000000,,2013-05-03 10:52:00,
2013-05-03 06:00:00,34.0,34.0,-100.00,North,0,10.0,-999.0,96,-99.99,,,-99.99,2.320000,,2013-05-03 11:00:00,
2013-05-03 06:42:00,34.0,34.0,-100.00,North,0,10.0,-999.0,96,-99.99,,,-99.99,2.320000,,2013-05-03 11:42:00,
2013-05-03 06:52:00,34.0,34.0,-100.00,North,0,10.0,-999.0,96,-99.99,,,-99.99,2.320000,,2013-05-03 11:52:00,
2013-05-03 08:00:00,36.0,35.0,-100.00,North,0,10.0,-999.0,94,-99.99,,,-99.99,175.160004,,2013-05-03 13:00:00,
2013-05-03 08:42:00,36.0,35.0,-100.00,North,0,10.0,-999.0,94,-99.99,,,-99.99,175.160004,,2013-05-03 13:42:00,
2013-05-03 08:52:00,36.0,35.0,-100.00,North,0,10.0,-999.0,94,-99.99,,,-99.99,175.160004,,2013-05-03 13:52:00,
2013-05-03 09:00:00,38.0,35.0,-100.00,North,0,11.0,-999.0,91,-99.99,,,-99.99,290.000000,,2013-05-03 14:00:00,
2013-05-03 09:42:00,38.0,35.0,-100.00,North,0,11.0,-999.0,91,-99.99,,,-99.99,290.000000,,2013-05-03 14:42:00,
2013-05-03 09:52:00,38.0,35.0,-100.00,North,0,11.0,-999.0,91,-99.99,,,-99.99,290.000000,,2013-05-03 14:52:00,
2013-05-03 10:00:00,39.0,36.0,-100.00,NNE,22,11.0,-999.0,87,-99.99,,,-99.99,444.279999,,2013-05-03 15:00:00,
2013-05-03 10:43:00,39.0,36.0,-100.00,NNE,22,11.0,-999.0,87,-99.99,,,-99.99,444.279999,,2013-05-03 15:43:00,
2013-05-03 10:53:00,39.0,36.0,-100.00,NNE,22,11.0,-999.0,87,-99.99,,,-99.99,444.279999,,2013-05-03 15:53:00,
2013-05-03 11:00:00,41.0,36.0,-100.00,NNE,22,10.0,-999.0,83,-99.99,,,-99.99,505.760010,,2013-05-03 16:00:00,
2013-05-03 11:42:00,41.0,36.0,-100.00,NNE,22,10.0,-999.0,83,-99.99,,,-99.99,505.760010,,2013-05-03 16:42:00,
2013-05-03 11:52:00,41.0,36.0,-100.00,NNE,22,10.0,-999.0,83,-99.99,,,-99.99,505.760010,,2013-05-03 16:52:00,
2013-05-03 12:00:00,43.0,37.0,-100.00,NNE,22,11.0,-999.0,78,-99.99,,,-99.99,596.239990,,2013-05-03 17:00:00,
2013-05-03 12:42:00,43.0,37.0,-100.00,NNE,22,11.0,-999.0,78,-99.99,,,-99.99,596.239990,,2013-05-03 17:42:00,
2013-05-03 12:52:00,43.0,37.0,-100.00,NNE,22,11.0,-999.0,78,-99.99,,,-99.99,596.239990,,2013-05-03 17:52:00,
2013-05-03 13:00:00,47.0,39.0,-100.00,NNE,22,11.0,-999.0,73,-99.99,,,-99.99,828.239990,,2013-05-03 18:00:00,
2013-05-03 13:42:00,47.0,39.0,-100.00,NNE,22,11.0,-999.0,73,-99.99,,,-99.99,828.239990,,2013-05-03 18:42:00,
2013-05-03 13:52:00,47.0,39.0,-100.00,NNE,22,11.0,-999.0,73,-99.99,,,-99.99,828.239990,,2013-05-03 18:52:00,
2013-05-03 14:00:00,47.0,39.0,-100.00,NNE,22,10.0,-999.0,72,-99.99,,,-99.99,661.200012,,2013-05-03 19:00:00,
2013-05-03 14:42:00,47.0,39.0,-100.00,NNE,22,10.0,-999.0,72,-99.99,,,-99.99,661.200012,,2013-05-03 19:42:00,
2013-05-03 14:52:00,47.0,39.0,-100.00,NNE,22,10.0,-999.0,72,-99.99,,,-99.99,661.200012,,2013-05-03 19:52:00,
2013-05-03 15:00:00,46.0,38.0,-100.00,NNE,22,10.0,-999.0,74,-99.99,,,-99.99,249.399994,,2013-05-03 20:00:00,
2013-05-03 15:42:00,46.0,38.0,-100.00,NNE,22,10.0,-999.0,74,-99.99,,,-99.99,249.399994,,2013-05-03 20:42:00,
2013-05-03 15:52:00,46.0,38.0,-100.00,NNE,22,10.0,-999.0,74,-99.99,,,-99.99,249.399994,,2013-05-03 20:52:00,
2013-05-03 16:00:00,46.0,38.0,-100.00,North,0,10.0,-999.0,73,-99.99,,,-99.99,178.639999,,2013-05-03 21:00:00,
2013-05-03 16:43:00,46.0,38.0,-100.00,North,0,10.0,-999.0,73,-99.99,,,-99.99,178.639999,,2013-05-03 21:43:00,
2013-05-03 16:53:00,46.0,38.0,-100.00,North,0,10.0,-999.0,73,-99.99,,,-99.99,178.639999,,2013-05-03 21:53:00,
2013-05-03 20:00:00,42.0,36.0,-100.00,North,0,10.0,-999.0,78,-99.99,,,-99.99,5.800000,,2013-05-04 01:00:00,
2013-05-03 20:42:00,42.0,36.0,-100.00,North,0,10.0,-999.0,78,-99.99,,,-99.99,5.800000,,2013-05-04 01:42:00,
2013-05-03 20:52:00,42.0,36.0,-100.00,North,0,10.0,-999.0,78,-99.99,,,-99.99,5.800000,,2013-05-04 01:52:00,
2013-05-03 21:00:00,41.0,36.0,-100.00,North,0,10.0,-999.0,81,-99.99,,,-99.99,0.000000,,2013-05-04 02:00:00,
2013-05-03 21:42:00,41.0,36.0,-100.00,North,0,10.0,-999.0,81,-99.99,,,-99.99,0.000000,,2013-05-04 02:42:00,
2013-05-03 21:52:00,41.0,36.0,-100.00,North,0,10.0,-999.0,81,-99.99,,,-99.99,0.000000,,2013-05-04 02:52:00,
2013-05-03 22:00:00,40.0,35.0,-100.00,North,0,12.0,-999.0,83,-99.99,,,-99.99,0.000000,,2013-05-04 03:00:00,
2013-05-03 22:43:00,40.0,35.0,-100.00,North,0,12.0,-999.0,83,-99.99,,,-99.99,0.000000,,2013-05-04 03:43:00,
2013-05-03 22:53:00,40.0,35.0,-100.00,North,0,12.0,-999.0,83,-99.99,,,-99.99,0.000000,,2013-05-04 03:53:00,
2013-05-03 23:00:00,39.0,35.0,-100.00,NNE,22,12.0,-999.0,83,-99.99,,,-99.99,0.000000,,2013-05-04 04:00:00,
2013-05-03 23:43:00,39.0,35.0,-100.00,NNE,22,12.0,-999.0,83,-99.99,,,-99.99,0.000000,,2013-05-04 04:43:00,
2013-05-03 23:52:00,39.0,35.0,-100.00,NNE,22,12.0,-999.0,83,-99.99,,,-99.99,0.000000,,2013-05-04 04:52:00,